Terminal Aerodrome Forecast
Issued by NWS

Home | Current Version | Previous Version | Graphics & Text | Print | Product List | Glossary On
Versions: 1 2 3 4 5 6 7 8 9 10 11 12 13 14
081
FTUS43 KGRB 191720
TAFCWA
TAF
KCWA 191720Z 1918/2018 32013G17KT P6SM OVC035
     FM192000 33011G15KT P6SM BKN040
     FM192300 34009KT P6SM SCT050
     FM200300 36003KT P6SM SCT250
     FM201500 25005KT P6SM BKN200=

USA.gov is the U.S. government's official web portal to all federal, state and local government web resources and services.